createdAt,value
2017-07-06T00:02:06.368Z,19.50
2017-07-06T00:04:34.461Z,19.30
2017-07-06T00:07:02.717Z,19.20
2017-07-06T00:09:30.859Z,19.20
2017-07-06T00:11:58.941Z,18.90
2017-07-06T00:14:27.029Z,18.90
2017-07-06T00:16:55.205Z,19.10
2017-07-06T00:19:23.291Z,19.30
2017-07-06T00:21:51.376Z,19.20
2017-07-06T00:24:19.496Z,18.60
2017-07-06T00:26:47.588Z,18.80
2017-07-06T00:29:16.567Z,19.00
2017-07-06T00:31:44.720Z,18.90
2017-07-06T00:34:12.996Z,18.80
2017-07-06T00:36:41.079Z,18.90
2017-07-06T00:39:09.170Z,19.00
2017-07-06T00:41:37.243Z,18.90
2017-07-06T00:44:05.327Z,18.90
2017-07-06T00:46:33.416Z,18.90
2017-07-06T00:49:01.513Z,18.90
2017-07-06T00:51:29.589Z,19.10
2017-07-06T00:53:57.690Z,19.20
2017-07-06T00:56:25.774Z,19.10
2017-07-06T00:58:53.896Z,19.10
2017-07-06T01:01:21.981Z,19.10
2017-07-06T01:03:50.111Z,19.00
2017-07-06T01:06:18.211Z,19.00
2017-07-06T01:08:46.287Z,19.00
2017-07-06T01:11:14.373Z,19.00
2017-07-06T01:13:42.448Z,19.00
2017-07-06T01:16:10.550Z,18.90
2017-07-06T01:18:38.641Z,18.70
2017-07-06T01:21:06.737Z,18.70
2017-07-06T01:23:34.828Z,18.70
2017-07-06T01:26:02.904Z,18.60
2017-07-06T01:28:30.994Z,18.10
2017-07-06T01:30:59.109Z,18.00
2017-07-06T01:33:27.206Z,18.10
2017-07-06T01:35:55.291Z,18.40
2017-07-06T01:38:23.386Z,18.40
2017-07-06T01:40:51.462Z,18.50
2017-07-06T01:43:19.548Z,18.40
2017-07-06T01:45:47.633Z,18.40
2017-07-06T01:48:15.935Z,18.30
2017-07-06T01:50:44.024Z,17.90
2017-07-06T01:53:12.100Z,17.80
2017-07-06T01:55:40.184Z,17.60
2017-07-06T01:58:08.260Z,17.20
2017-07-06T02:00:36.351Z,17.50
2017-07-06T02:03:04.428Z,17.70
2017-07-06T02:05:32.533Z,17.90
2017-07-06T02:08:00.616Z,18.00
2017-07-06T02:10:28.700Z,18.00
2017-07-06T02:12:56.812Z,18.10
2017-07-06T02:15:24.965Z,18.10
2017-07-06T02:17:53.060Z,18.00
2017-07-06T02:20:21.176Z,17.50
2017-07-06T02:22:49.260Z,17.60
2017-07-06T02:25:17.340Z,17.50
2017-07-06T02:27:45.441Z,17.60
2017-07-06T02:30:13.535Z,17.70
2017-07-06T02:32:41.629Z,17.80
2017-07-06T02:35:09.716Z,17.90
2017-07-06T02:37:37.805Z,18.00
2017-07-06T02:40:05.923Z,18.00
2017-07-06T02:42:34.023Z,18.00
2017-07-06T02:45:02.227Z,18.00
2017-07-06T02:47:30.333Z,18.10
2017-07-06T02:49:58.421Z,17.90
2017-07-06T02:52:26.505Z,17.70
2017-07-06T02:54:54.596Z,17.50
2017-07-06T02:57:22.696Z,17.60
2017-07-06T02:59:50.820Z,17.70
2017-07-06T03:02:18.898Z,17.70
2017-07-06T03:04:47.012Z,17.60
2017-07-06T03:07:15.105Z,17.60
2017-07-06T03:09:43.188Z,17.60
2017-07-06T03:12:11.284Z,17.50
2017-07-06T03:14:39.456Z,17.50
2017-07-06T03:17:07.567Z,17.20
2017-07-06T03:19:35.661Z,17.30
2017-07-06T03:22:03.748Z,17.30
2017-07-06T03:24:31.837Z,17.40
2017-07-06T03:26:59.945Z,17.40
2017-07-06T03:29:28.044Z,17.40
2017-07-06T03:31:56.132Z,17.40
2017-07-06T03:34:24.211Z,17.40
2017-07-06T03:36:52.300Z,17.30
2017-07-06T03:39:20.387Z,17.30
2017-07-06T03:41:48.496Z,17.20
2017-07-06T03:44:16.588Z,17.00
2017-07-06T03:46:44.695Z,17.10
2017-07-06T03:49:12.805Z,17.20
2017-07-06T03:51:40.895Z,17.20
2017-07-06T03:54:08.989Z,17.10
2017-07-06T03:56:37.076Z,17.00
2017-07-06T03:59:05.172Z,17.20
2017-07-06T04:01:33.275Z,17.20
2017-07-06T04:04:01.364Z,17.10
2017-07-06T04:06:29.460Z,17.10
2017-07-06T04:08:57.559Z,17.00
2017-07-06T04:11:25.653Z,17.20
2017-07-06T04:13:53.753Z,17.20
2017-07-06T04:16:21.869Z,17.50
2017-07-06T04:18:49.979Z,17.10
2017-07-06T04:21:18.056Z,17.30
2017-07-06T04:23:46.155Z,17.40
2017-07-06T04:26:14.267Z,17.50
2017-07-06T04:28:42.373Z,17.40
2017-07-06T04:31:10.468Z,17.50
2017-07-06T04:33:38.561Z,17.70
2017-07-06T04:36:06.661Z,18.00
2017-07-06T04:38:34.745Z,18.10
2017-07-06T04:41:02.852Z,18.20
2017-07-06T04:43:31.007Z,18.30
2017-07-06T04:45:59.393Z,18.50
2017-07-06T04:48:27.476Z,18.70
2017-07-06T04:50:55.587Z,18.80
2017-07-06T04:53:23.692Z,19.00
2017-07-06T04:55:51.779Z,18.90
2017-07-06T04:58:19.880Z,19.20
2017-07-06T05:00:47.972Z,19.30
2017-07-06T05:03:16.086Z,19.70
2017-07-06T05:05:44.167Z,19.90
2017-07-06T05:08:12.257Z,20.00
2017-07-06T05:10:40.352Z,20.20
2017-07-06T05:13:08.457Z,20.40
2017-07-06T05:15:36.538Z,20.60
2017-07-06T05:18:04.638Z,20.70
2017-07-06T05:20:32.735Z,20.90
2017-07-06T05:23:00.831Z,21.00
2017-07-06T05:25:28.921Z,21.00
2017-07-06T05:27:57.011Z,21.20
2017-07-06T05:30:25.106Z,21.40
2017-07-06T05:32:53.210Z,21.70
2017-07-06T05:35:21.330Z,21.80
2017-07-06T05:37:49.429Z,22.00
2017-07-06T05:40:17.524Z,22.10
2017-07-06T05:42:45.605Z,22.30
2017-07-06T05:45:13.690Z,22.40
2017-07-06T05:47:41.788Z,22.40
2017-07-06T05:50:09.888Z,22.60
2017-07-06T05:52:37.976Z,22.80
2017-07-06T05:55:06.055Z,22.60
2017-07-06T05:57:34.139Z,22.20
2017-07-06T06:00:02.244Z,22.50
2017-07-06T06:02:30.345Z,22.20
2017-07-06T06:04:58.434Z,22.90
2017-07-06T06:07:26.524Z,23.30
2017-07-06T06:09:54.612Z,23.10
2017-07-06T06:12:22.715Z,23.30
2017-07-06T06:14:50.797Z,22.70
2017-07-06T06:17:18.883Z,22.90
2017-07-06T06:19:46.958Z,22.60
2017-07-06T06:22:15.047Z,22.90
2017-07-06T06:24:43.136Z,23.10
2017-07-06T06:27:11.238Z,22.90
2017-07-06T06:29:39.319Z,23.10
2017-07-06T06:32:07.401Z,22.40
2017-07-06T06:34:35.492Z,22.50
2017-07-06T06:37:03.579Z,22.80
2017-07-06T06:39:31.671Z,22.90
2017-07-06T06:41:59.751Z,23.30
2017-07-06T06:44:27.845Z,23.10
2017-07-06T06:46:55.925Z,23.40
2017-07-06T06:49:24.004Z,23.40
2017-07-06T06:51:52.087Z,23.50
2017-07-06T06:54:20.178Z,23.70
2017-07-06T06:56:48.260Z,23.50
2017-07-06T06:59:16.350Z,23.40
2017-07-06T07:01:44.428Z,23.80
2017-07-06T07:04:12.526Z,23.70
2017-07-06T07:06:40.623Z,24.60
2017-07-06T07:09:08.700Z,25.20
2017-07-06T07:11:36.784Z,24.70
2017-07-06T07:14:04.875Z,23.90
2017-07-06T07:16:32.979Z,24.30
2017-07-06T07:19:01.087Z,24.90
2017-07-06T07:21:29.200Z,25.40
2017-07-06T07:23:57.387Z,26.10
2017-07-06T07:26:25.563Z,26.60
2017-07-06T07:28:53.582Z,26.90
2017-07-06T07:31:21.673Z,27.20
2017-07-06T07:33:50.742Z,27.10
2017-07-06T07:36:18.819Z,27.20
2017-07-06T07:38:46.903Z,27.20
2017-07-06T07:41:14.972Z,26.90
2017-07-06T07:43:43.051Z,27.60
2017-07-06T07:46:11.136Z,28.00
2017-07-06T07:48:39.237Z,27.90
2017-07-06T07:51:07.323Z,27.30
2017-07-06T07:53:35.456Z,28.00
2017-07-06T07:56:03.548Z,28.50
2017-07-06T07:58:31.636Z,28.70
2017-07-06T08:00:59.730Z,28.90
2017-07-06T08:03:27.813Z,29.10
2017-07-06T08:05:55.919Z,29.20
2017-07-06T08:08:23.992Z,29.20
2017-07-06T08:10:52.093Z,29.30
2017-07-06T08:13:20.184Z,29.30
2017-07-06T08:15:48.269Z,29.40
2017-07-06T08:18:16.347Z,29.60
2017-07-06T08:20:44.467Z,29.80
2017-07-06T08:23:12.557Z,30.10
2017-07-06T08:25:40.648Z,30.30
2017-07-06T08:28:08.750Z,30.30
2017-07-06T08:30:36.829Z,29.80
2017-07-06T08:33:04.923Z,29.90
2017-07-06T08:35:33.015Z,30.40
2017-07-06T08:38:01.108Z,30.50
2017-07-06T08:40:29.189Z,30.60
2017-07-06T08:42:57.283Z,30.30
2017-07-06T08:45:25.371Z,30.60
2017-07-06T08:47:53.495Z,30.90
2017-07-06T08:50:21.595Z,31.10
2017-07-06T08:52:49.684Z,30.80
2017-07-06T08:55:17.776Z,31.20
2017-07-06T08:57:45.852Z,31.50
2017-07-06T09:00:13.931Z,31.50
2017-07-06T09:02:42.016Z,29.10
2017-07-06T09:05:10.100Z,29.00
2017-07-06T09:07:38.183Z,29.90
2017-07-06T09:10:06.264Z,29.70
2017-07-06T09:12:34.344Z,30.70
2017-07-06T09:15:02.434Z,31.50
2017-07-06T09:17:30.522Z,32.10
2017-07-06T09:19:58.592Z,32.40
2017-07-06T09:22:26.682Z,32.70
2017-07-06T09:24:54.765Z,32.50
2017-07-06T09:27:22.847Z,32.70
2017-07-06T09:29:50.919Z,33.10
2017-07-06T09:32:19.005Z,33.50
2017-07-06T09:34:47.079Z,33.60
2017-07-06T09:37:15.185Z,33.40
2017-07-06T09:39:43.263Z,33.40
2017-07-06T09:42:11.343Z,32.70
2017-07-06T09:44:39.447Z,33.30
2017-07-06T09:47:07.541Z,31.90
2017-07-06T09:49:35.624Z,32.30
2017-07-06T09:52:03.705Z,33.30
2017-07-06T09:54:31.781Z,33.90
2017-07-06T09:56:59.861Z,34.30
2017-07-06T09:59:28.198Z,34.50
2017-07-06T10:01:56.259Z,34.70
2017-07-06T10:04:24.360Z,34.20
2017-07-06T10:06:52.439Z,33.90
2017-07-06T10:09:20.541Z,34.80
2017-07-06T10:11:48.615Z,34.90
2017-07-06T10:14:16.692Z,35.10
2017-07-06T10:16:44.770Z,33.90
2017-07-06T10:19:12.861Z,34.50
2017-07-06T10:21:40.937Z,34.60
2017-07-06T10:24:09.028Z,34.90
2017-07-06T10:26:37.111Z,35.30
2017-07-06T10:29:05.189Z,35.30
2017-07-06T10:31:33.265Z,35.60
2017-07-06T10:34:01.346Z,35.80
2017-07-06T10:36:29.422Z,35.60
2017-07-06T10:38:57.508Z,36.10
2017-07-06T10:41:25.593Z,36.10
2017-07-06T10:43:53.673Z,34.30
2017-07-06T10:46:21.760Z,33.90
2017-07-06T10:48:49.846Z,34.90
2017-07-06T10:51:17.921Z,35.60
2017-07-06T10:53:46.015Z,36.10
2017-07-06T10:56:14.100Z,36.20
2017-07-06T10:58:42.192Z,36.20
2017-07-06T11:01:10.288Z,36.40
2017-07-06T11:03:38.370Z,36.40
2017-07-06T11:06:06.444Z,36.10
2017-07-06T11:08:34.528Z,34.60
2017-07-06T11:11:02.623Z,34.50
2017-07-06T11:13:30.706Z,34.40
2017-07-06T11:15:58.790Z,33.80
2017-07-06T11:18:26.867Z,35.00
2017-07-06T11:20:54.957Z,35.80
2017-07-06T11:23:23.028Z,36.20
2017-07-06T11:25:51.110Z,36.50
2017-07-06T11:28:19.189Z,36.20
2017-07-06T11:30:47.264Z,35.90
2017-07-06T11:33:15.360Z,36.00
2017-07-06T11:35:43.436Z,36.10
2017-07-06T11:38:11.525Z,35.80
2017-07-06T11:40:39.604Z,34.50
2017-07-06T11:43:07.684Z,34.10
2017-07-06T11:45:35.789Z,33.60
2017-07-06T11:48:03.871Z,33.80
2017-07-06T11:50:31.967Z,33.80
2017-07-06T11:53:00.817Z,33.40
2017-07-06T11:55:28.895Z,33.40
2017-07-06T11:57:56.984Z,34.70
2017-07-06T12:00:25.060Z,35.60
2017-07-06T12:02:53.136Z,34.20
2017-07-06T12:05:21.228Z,34.50
2017-07-06T12:07:49.317Z,35.60
2017-07-06T12:10:17.409Z,36.30
2017-07-06T12:12:45.492Z,35.20
2017-07-06T12:15:13.586Z,34.20
2017-07-06T12:17:41.661Z,34.30
2017-07-06T12:20:09.763Z,34.40
2017-07-06T12:22:37.855Z,35.30
2017-07-06T12:25:05.951Z,36.10
2017-07-06T12:27:34.040Z,36.40
2017-07-06T12:30:02.891Z,36.20
2017-07-06T12:32:31.306Z,36.20
2017-07-06T12:34:59.379Z,36.50
2017-07-06T12:37:27.469Z,36.70
2017-07-06T12:39:55.549Z,36.70
2017-07-06T12:42:23.647Z,35.60
2017-07-06T12:44:51.728Z,36.10
2017-07-06T12:47:19.801Z,33.30
2017-07-06T12:49:47.935Z,35.00
2017-07-06T12:52:15.972Z,36.10
2017-07-06T12:54:44.821Z,36.90
2017-07-06T12:57:12.900Z,36.90
2017-07-06T12:59:40.990Z,37.30
2017-07-06T13:02:09.104Z,37.30
2017-07-06T13:04:37.195Z,37.10
2017-07-06T13:07:05.285Z,37.20
2017-07-06T13:09:33.365Z,36.80
2017-07-06T13:12:01.440Z,36.90
2017-07-06T13:14:29.527Z,36.40
2017-07-06T13:16:57.604Z,36.70
2017-07-06T13:19:25.697Z,36.90
2017-07-06T13:21:53.783Z,36.90
2017-07-06T13:24:21.859Z,36.40
2017-07-06T13:26:49.949Z,35.80
2017-07-06T13:29:18.031Z,35.30
2017-07-06T13:31:46.111Z,34.50
2017-07-06T13:34:14.955Z,35.70
2017-07-06T13:36:43.048Z,35.80
2017-07-06T13:39:11.137Z,36.00
2017-07-06T13:41:39.215Z,36.20
2017-07-06T13:44:07.304Z,36.00
2017-07-06T13:46:35.377Z,35.90
2017-07-06T13:49:03.476Z,34.20
2017-07-06T13:51:31.555Z,35.10
2017-07-06T13:53:59.636Z,34.20
2017-07-06T13:56:27.722Z,33.20
2017-07-06T13:58:55.823Z,33.90
2017-07-06T14:01:23.903Z,33.60
2017-07-06T14:03:52.203Z,33.30
2017-07-06T14:06:20.293Z,33.50
2017-07-06T14:08:48.397Z,33.70
2017-07-06T14:11:16.494Z,34.00
2017-07-06T14:13:44.590Z,34.00
2017-07-06T14:19:10.041Z,34.10
2017-07-06T14:21:38.139Z,34.00
2017-07-06T14:24:06.204Z,33.90
2017-07-06T14:26:34.289Z,33.70
2017-07-06T14:29:02.373Z,33.70
2017-07-06T14:31:30.453Z,33.70
2017-07-06T14:33:58.539Z,33.60
2017-07-06T14:36:26.641Z,33.60
2017-07-06T14:38:54.720Z,33.60
2017-07-06T14:41:23.775Z,33.10
2017-07-06T14:43:51.856Z,33.10
2017-07-06T14:46:19.937Z,33.10
2017-07-06T14:48:48.390Z,33.10
2017-07-06T14:51:16.454Z,33.10
2017-07-06T14:53:44.549Z,33.10
2017-07-06T14:56:12.623Z,32.70
2017-07-06T14:58:40.720Z,32.40
2017-07-06T15:01:08.811Z,32.60
2017-07-06T15:03:36.888Z,32.50
2017-07-06T15:06:05.032Z,32.40
2017-07-06T15:08:33.116Z,32.20
2017-07-06T15:11:01.277Z,32.20
2017-07-06T15:13:29.353Z,32.00
2017-07-06T15:15:57.433Z,31.70
2017-07-06T15:18:25.514Z,31.90
2017-07-06T15:20:53.601Z,32.00
2017-07-06T15:23:21.684Z,32.00
2017-07-06T15:25:49.786Z,32.00
2017-07-06T15:28:17.856Z,31.90
2017-07-06T15:30:45.947Z,31.90
2017-07-06T15:33:14.052Z,31.80
2017-07-06T15:35:42.124Z,31.90
2017-07-06T15:38:10.208Z,31.60
2017-07-06T15:40:38.289Z,31.60
2017-07-06T15:43:06.389Z,31.30
2017-07-06T15:45:34.481Z,31.50
2017-07-06T15:48:02.572Z,31.60
2017-07-06T15:50:30.665Z,31.50
2017-07-06T15:52:58.757Z,31.40
2017-07-06T15:55:26.835Z,31.40
2017-07-06T15:57:54.919Z,31.20
2017-07-06T16:00:23.002Z,31.20
2017-07-06T16:02:51.096Z,31.20
2017-07-06T16:05:19.180Z,31.00
2017-07-06T16:07:47.278Z,30.80
2017-07-06T16:10:15.369Z,30.70
2017-07-06T16:12:43.455Z,30.60
2017-07-06T16:15:11.536Z,30.60
2017-07-06T16:17:39.604Z,30.60
2017-07-06T16:20:07.701Z,30.70
2017-07-06T16:22:35.803Z,30.70
2017-07-06T16:25:03.883Z,30.50
2017-07-06T16:27:31.965Z,30.60
2017-07-06T16:30:00.058Z,30.50
2017-07-06T16:32:28.137Z,30.30
2017-07-06T16:34:56.228Z,30.30
2017-07-06T16:37:24.303Z,30.10
2017-07-06T16:39:52.389Z,30.20
2017-07-06T16:42:20.464Z,30.10
2017-07-06T16:44:48.544Z,30.10
2017-07-06T16:47:16.623Z,30.00
2017-07-06T16:49:44.711Z,30.00
2017-07-06T16:52:12.801Z,30.10
2017-07-06T16:54:40.887Z,30.00
2017-07-06T16:57:08.973Z,30.00
2017-07-06T16:59:37.064Z,30.00
2017-07-06T17:02:05.150Z,29.90
2017-07-06T17:04:33.245Z,29.90
2017-07-06T17:07:01.343Z,30.00
2017-07-06T17:09:29.436Z,30.20
2017-07-06T17:11:57.522Z,30.20
2017-07-06T17:14:25.608Z,30.20
2017-07-06T17:16:53.692Z,30.10
2017-07-06T17:19:21.764Z,30.10
2017-07-06T17:21:49.831Z,30.10
2017-07-06T17:24:17.921Z,30.10
2017-07-06T17:26:45.999Z,29.90
2017-07-06T17:29:14.083Z,29.60
2017-07-06T17:31:42.168Z,29.40
2017-07-06T17:34:10.263Z,29.30
2017-07-06T17:36:38.350Z,28.90
2017-07-06T17:39:06.779Z,28.80
2017-07-06T17:41:34.863Z,28.50
2017-07-06T17:44:02.947Z,28.60
2017-07-06T17:46:31.032Z,28.80
2017-07-06T17:48:59.104Z,28.60
2017-07-06T17:51:27.188Z,28.50
2017-07-06T17:53:55.256Z,28.40
2017-07-06T17:56:23.327Z,28.40
2017-07-06T17:58:51.410Z,28.30
2017-07-06T18:01:19.501Z,28.40
2017-07-06T18:03:47.583Z,28.30
2017-07-06T18:06:15.673Z,28.20
2017-07-06T18:08:43.754Z,28.30
2017-07-06T18:11:11.829Z,28.20
2017-07-06T18:13:39.918Z,28.30
2017-07-06T18:16:08.005Z,28.20
2017-07-06T18:18:36.084Z,27.70
2017-07-06T18:21:04.178Z,27.50
2017-07-06T18:23:32.263Z,27.40
2017-07-06T18:26:00.348Z,27.60
2017-07-06T18:28:28.431Z,27.40
2017-07-06T18:30:56.515Z,27.40
2017-07-06T18:33:24.604Z,27.20
2017-07-06T18:35:52.702Z,27.10
2017-07-06T18:38:20.778Z,27.20
2017-07-06T18:40:48.863Z,27.30
2017-07-06T18:43:16.963Z,27.30
2017-07-06T18:48:41.872Z,27.30
2017-07-06T18:51:09.967Z,27.20
2017-07-06T18:53:38.053Z,27.00
2017-07-06T18:56:06.139Z,27.00
2017-07-06T18:58:34.218Z,26.80
2017-07-06T19:01:02.315Z,26.90
2017-07-06T19:03:30.400Z,26.90
2017-07-06T19:05:58.492Z,26.80
2017-07-06T19:08:26.581Z,26.90
2017-07-06T19:10:54.864Z,26.80
2017-07-06T19:13:22.959Z,26.60
2017-07-06T19:15:51.053Z,26.40
2017-07-06T19:18:19.128Z,26.40
2017-07-06T19:20:47.221Z,26.10
2017-07-06T19:23:15.311Z,26.00
2017-07-06T19:25:43.392Z,26.00
2017-07-06T19:28:11.480Z,26.10
2017-07-06T19:30:39.556Z,26.10
2017-07-06T19:33:07.657Z,26.00
2017-07-06T19:35:35.789Z,26.00
2017-07-06T19:38:04.055Z,25.90
2017-07-06T19:40:32.129Z,25.90
2017-07-06T19:43:00.215Z,25.90
2017-07-06T19:45:28.312Z,25.50
2017-07-06T19:47:56.413Z,25.20
2017-07-06T19:50:24.497Z,25.20
2017-07-06T19:52:52.576Z,25.40
2017-07-06T19:55:20.671Z,25.40
2017-07-06T19:57:48.765Z,25.50
2017-07-06T20:00:16.843Z,25.50
2017-07-06T20:02:44.933Z,25.50
2017-07-06T20:05:13.013Z,25.40
2017-07-06T20:07:41.095Z,25.30
2017-07-06T20:10:09.179Z,25.30
2017-07-06T20:12:37.265Z,25.30
2017-07-06T20:15:05.344Z,25.20
2017-07-06T20:17:33.424Z,25.10
2017-07-06T20:20:01.517Z,25.10
2017-07-06T20:22:29.625Z,25.00
2017-07-06T20:24:57.714Z,24.80
2017-07-06T20:27:25.789Z,24.70
2017-07-06T20:29:53.868Z,24.70
2017-07-06T20:32:21.956Z,24.60
2017-07-06T20:34:50.043Z,24.40
2017-07-06T20:37:18.119Z,24.50
2017-07-06T20:39:46.199Z,24.50
2017-07-06T20:42:14.280Z,24.30
2017-07-06T20:44:42.369Z,24.10
2017-07-06T20:47:10.443Z,24.10
2017-07-06T20:49:38.531Z,24.10
2017-07-06T20:52:06.623Z,24.10
2017-07-06T20:54:34.701Z,24.00
2017-07-06T20:57:02.792Z,23.90
2017-07-06T20:59:30.875Z,23.90
2017-07-06T21:01:58.959Z,23.60
2017-07-06T21:04:27.108Z,23.70
2017-07-06T21:06:55.235Z,23.60
2017-07-06T21:09:23.375Z,23.50
2017-07-06T21:11:51.517Z,23.50
2017-07-06T21:14:19.644Z,23.40
2017-07-06T21:16:47.769Z,23.30
2017-07-06T21:19:15.839Z,23.20
2017-07-06T21:21:43.980Z,23.00
2017-07-06T21:24:12.167Z,23.00
2017-07-06T21:26:40.345Z,22.90
2017-07-06T21:29:08.395Z,22.80
2017-07-06T21:31:36.472Z,22.70
2017-07-06T21:34:04.555Z,22.70
2017-07-06T21:36:32.636Z,22.80
2017-07-06T21:39:00.725Z,22.90
2017-07-06T21:41:29.687Z,22.70
2017-07-06T21:43:57.778Z,22.60
2017-07-06T21:46:25.873Z,22.50
2017-07-06T21:48:53.945Z,22.40
2017-07-06T21:51:22.029Z,22.40
2017-07-06T21:53:50.112Z,22.30
2017-07-06T21:56:18.183Z,22.30
2017-07-06T21:58:46.264Z,22.40
2017-07-06T22:01:14.347Z,22.40
2017-07-06T22:03:42.423Z,22.40
2017-07-06T22:06:10.519Z,22.50
2017-07-06T22:08:38.605Z,22.40
2017-07-06T22:11:06.685Z,22.40
2017-07-06T22:13:34.777Z,22.20
2017-07-06T22:16:02.860Z,22.30
2017-07-06T22:18:30.940Z,22.30
2017-07-06T22:20:59.016Z,22.30
2017-07-06T22:23:27.103Z,22.30
2017-07-06T22:25:55.193Z,22.40
2017-07-06T22:28:23.275Z,22.50
2017-07-06T22:30:51.371Z,22.40
2017-07-06T22:33:19.449Z,22.60
2017-07-06T22:35:47.542Z,22.80
2017-07-06T22:38:15.614Z,22.90
2017-07-06T22:40:43.694Z,22.70
2017-07-06T22:43:11.770Z,22.40
2017-07-06T22:45:39.856Z,22.60
2017-07-06T22:48:07.941Z,22.50
2017-07-06T22:50:36.027Z,22.40
2017-07-06T22:53:04.128Z,22.40
2017-07-06T22:55:32.219Z,22.30
2017-07-06T22:58:00.295Z,22.30
2017-07-06T23:00:28.545Z,22.30
2017-07-06T23:02:56.646Z,22.30
2017-07-06T23:05:24.741Z,22.20
2017-07-06T23:07:52.837Z,22.00
2017-07-06T23:10:20.920Z,21.80
2017-07-06T23:12:49.002Z,21.90
2017-07-06T23:15:17.091Z,22.00
2017-07-06T23:17:45.180Z,21.90
2017-07-06T23:20:13.270Z,21.60
2017-07-06T23:22:41.380Z,21.60
2017-07-06T23:25:09.656Z,21.90
2017-07-06T23:27:37.820Z,22.00
2017-07-06T23:30:05.908Z,21.70
2017-07-06T23:32:34.000Z,21.30
2017-07-06T23:35:02.120Z,21.20
2017-07-06T23:37:30.196Z,20.90
2017-07-06T23:39:58.281Z,21.10
2017-07-06T23:42:26.359Z,20.90
2017-07-06T23:44:54.448Z,20.90
2017-07-06T23:47:22.524Z,21.30
2017-07-06T23:49:50.615Z,21.60
2017-07-06T23:52:18.705Z,21.80
2017-07-06T23:54:46.857Z,22.00
2017-07-06T23:57:14.936Z,22.10
2017-07-06T23:59:43.022Z,22.20
